Time;durP1;ratioP1;P1;durP2;ratioP2;P2;SDS_P1;SDS_P2;PMS_P1;PMS_P2;Temp;Humidity;BMP_temperature;BMP_pressure;BME280_temperature;BME280_humidity;BME280_pressure;Samples;Min_cycle;Max_cycle;Signal;HPM_P1;HPM_P2
2022/12/14 00:00:29;;;;;;;48.38;28.35;;;;;;;;;;5092447;27;20100;-40
2022/12/14 00:02:55;;;;;;;51.22;27.67;;;;;;;;;;5092784;27;20409;-41
2022/12/14 00:05:21;;;;;;;52.50;28.65;;;;;;;;;;5093277;27;20045;-41
2022/12/14 00:07:47;;;;;;;49.15;28.67;;;;;;;;;;5092433;27;20375;-43
2022/12/14 00:10:13;;;;;;;51.97;27.67;;;;;;;;;;5093115;27;20039;-40
2022/12/14 00:12:39;;;;;;;50.13;27.65;;;;;;;;;;5091930;28;20051;-42
2022/12/14 00:15:06;;;;;;;46.75;28.13;;;;;;;;;;5094165;27;20043;-43
2022/12/14 00:17:32;;;;;;;46.28;28.52;;;;;;;;;;5093569;27;20040;-41
2022/12/14 00:19:58;;;;;;;48.92;27.10;;;;;;;;;;5093128;27;20168;-42
2022/12/14 00:22:24;;;;;;;48.25;26.52;;;;;;;;;;5094585;28;20039;-41
2022/12/14 00:24:50;;;;;;;49.08;26.88;;;;;;;;;;5093665;28;20043;-41
2022/12/14 00:27:16;;;;;;;53.00;26.33;;;;;;;;;;5094221;27;20130;-41
2022/12/14 00:29:43;;;;;;;50.75;28.33;;;;;;;;;;5093676;27;20100;-42
2022/12/14 00:32:09;;;;;;;49.63;26.35;;;;;;;;;;5094479;27;20039;-41
2022/12/14 00:34:35;;;;;;;44.22;26.65;;;;;;;;;;5095299;27;20560;-45
2022/12/14 00:37:02;;;;;;;42.10;24.70;;;;;;;;;;5092169;27;20586;-41
2022/12/14 00:39:28;;;;;;;46.95;26.02;;;;;;;;;;5094449;27;20140;-41
2022/12/14 00:41:54;;;;;;;47.80;24.77;;;;;;;;;;5094046;27;20055;-42
2022/12/14 00:44:20;;;;;;;51.63;24.83;;;;;;;;;;5093977;27;20059;-41
2022/12/14 00:46:46;;;;;;;51.25;27.75;;;;;;;;;;5093042;28;20044;-43
2022/12/14 00:49:12;;;;;;;44.15;25.90;;;;;;;;;;5091773;27;20135;-41
2022/12/14 00:51:38;;;;;;;53.03;27.27;;;;;;;;;;5094338;28;20035;-41
2022/12/14 00:54:04;;;;;;;45.22;25.10;;;;;;;;;;5093788;27;20036;-42
2022/12/14 00:56:31;;;;;;;48.15;25.48;;;;;;;;;;5093653;27;20039;-42
2022/12/14 00:58:57;;;;;;;46.40;25.35;;;;;;;;;;5092496;27;20050;-41
2022/12/14 01:01:23;;;;;;;50.50;26.50;;;;;;;;;;5092978;28;20504;-41
2022/12/14 01:03:49;;;;;;;52.08;26.88;;;;;;;;;;5091844;28;20404;-41
2022/12/14 01:06:16;;;;;;;50.67;26.23;;;;;;;;;;5092072;28;20043;-41
2022/12/14 01:08:42;;;;;;;48.25;26.70;;;;;;;;;;5092064;28;20039;-42
2022/12/14 01:11:09;;;;;;;50.35;26.95;;;;;;;;;;5092638;28;20531;-40
2022/12/14 01:13:36;;;;;;;45.67;24.60;;;;;;;;;;5093018;28;20213;-42
2022/12/14 01:16:06;;;;;;;55.70;26.80;;;;;;;;;;5091715;28;20046;-42
2022/12/14 01:18:34;;;;;;;42.35;23.75;;;;;;;;;;5091166;28;20071;-41
2022/12/14 01:21:09;;;;;;;45.03;25.52;;;;;;;;;;5091580;28;20035;-41
2022/12/14 01:23:36;;;;;;;44.00;24.00;;;;;;;;;;5091960;28;20170;-43
2022/12/14 01:26:02;;;;;;;47.45;25.02;;;;;;;;;;5090904;28;20051;-41
2022/12/14 01:28:28;;;;;;;49.25;25.85;;;;;;;;;;5091655;28;20524;-41
2022/12/14 01:30:54;;;;;;;40.65;24.25;;;;;;;;;;5092739;28;20055;-43
2022/12/14 01:33:20;;;;;;;45.25;24.17;;;;;;;;;;5091192;28;20059;-43
2022/12/14 01:35:46;;;;;;;38.65;22.40;;;;;;;;;;5091868;28;20040;-43
2022/12/14 01:38:13;;;;;;;44.30;23.27;;;;;;;;;;5091457;28;20552;-41
2022/12/14 01:40:39;;;;;;;43.58;25.63;;;;;;;;;;5092609;28;20511;-45
2022/12/14 01:43:12;;;;;;;48.28;26.00;;;;;;;;;;5091310;27;20116;-43
2022/12/14 01:45:38;;;;;;;42.83;24.10;;;;;;;;;;5092313;28;20878;-46
2022/12/14 01:48:04;;;;;;;46.45;25.08;;;;;;;;;;5092713;28;20039;-45
2022/12/14 01:50:31;;;;;;;44.05;23.30;;;;;;;;;;5095043;28;20063;-44
2022/12/14 01:52:59;;;;;;;48.22;25.00;;;;;;;;;;5095718;27;20131;-41
2022/12/14 01:55:36;;;;;;;47.53;24.95;;;;;;;;;;5096362;27;20115;-45
2022/12/14 01:58:07;;;;;;;44.70;23.85;;;;;;;;;;5094947;27;20242;-45
2022/12/14 02:00:33;;;;;;;44.40;23.73;;;;;;;;;;5096673;27;20402;-44
2022/12/14 02:03:04;;;;;;;41.35;22.90;;;;;;;;;;5097111;28;20662;-42
2022/12/14 02:05:31;;;;;;;45.35;22.15;;;;;;;;;;5096903;27;20399;-40
2022/12/14 02:07:58;;;;;;;44.33;25.38;;;;;;;;;;5095891;27;20493;-42
2022/12/14 02:10:25;;;;;;;43.58;24.48;;;;;;;;;;5097218;27;20050;-41
2022/12/14 02:12:55;;;;;;;47.30;23.98;;;;;;;;;;5096578;27;20404;-40
2022/12/14 02:15:21;;;;;;;45.38;24.73;;;;;;;;;;5095941;27;20400;-41
2022/12/14 02:17:47;;;;;;;47.85;23.63;;;;;;;;;;5097643;27;20035;-41
2022/12/14 02:20:14;;;;;;;45.10;23.95;;;;;;;;;;5095650;27;20048;-41
2022/12/14 02:22:56;;;;;;;40.72;22.55;;;;;;;;;;5094730;27;20043;-41
2022/12/14 02:25:25;;;;;;;41.28;22.88;;;;;;;;;;5093863;28;20476;-40
2022/12/14 02:28:00;;;;;;;41.53;23.33;;;;;;;;;;5095213;27;20103;-40
2022/12/14 02:30:27;;;;;;;41.50;22.40;;;;;;;;;;5095511;28;20035;-41
2022/12/14 02:33:21;;;;;;;39.20;21.70;;;;;;;;;;5095935;27;20042;-41
2022/12/14 02:35:47;;;;;;;38.88;21.35;;;;;;;;;;5095021;27;20227;-41
2022/12/14 02:38:16;;;;;;;42.80;22.05;;;;;;;;;;5096237;27;20595;-41
2022/12/14 02:40:51;;;;;;;41.00;20.13;;;;;;;;;;5095659;27;20050;-41
2022/12/14 02:43:18;;;;;;;41.00;21.75;;;;;;;;;;5095025;27;20047;-41
2022/12/14 02:45:53;;;;;;;43.05;21.85;;;;;;;;;;5095335;27;20036;-40
2022/12/14 02:48:26;;;;;;;36.75;21.00;;;;;;;;;;5095253;27;20149;-41
2022/12/14 02:50:58;;;;;;;43.33;21.98;;;;;;;;;;5095064;27;20548;-40
2022/12/14 02:53:47;;;;;;;42.65;20.58;;;;;;;;;;5095388;27;20172;-40
2022/12/14 02:56:17;;;;;;;39.10;20.60;;;;;;;;;;5093659;28;20416;-41
2022/12/14 02:58:49;;;;;;;39.03;21.40;;;;;;;;;;5093985;27;20043;-40
2022/12/14 03:01:15;;;;;;;;;;;;;;;;;;5094239;28;20643;-46
2022/12/14 03:03:41;;;;;;;40.13;21.00;;;;;;;;;;5095907;27;19947;-41
2022/12/14 03:06:24;;;;;;;36.17;20.13;;;;;;;;;;5094224;28;20051;-42
2022/12/14 03:08:51;;;;;;;38.63;21.17;;;;;;;;;;5094692;28;20039;-41
2022/12/14 03:11:20;;;;;;;43.22;22.98;;;;;;;;;;5094236;27;20339;-41
2022/12/14 03:13:57;;;;;;;42.72;20.77;;;;;;;;;;5094057;27;20032;-40
2022/12/14 03:16:27;;;;;;;42.72;23.30;;;;;;;;;;5095099;27;20190;-41
2022/12/14 03:18:53;;;;;;;39.17;21.50;;;;;;;;;;5094414;27;20096;-41
2022/12/14 03:21:30;;;;;;;39.03;20.45;;;;;;;;;;5092858;27;20047;-40
2022/12/14 03:23:57;;;;;;;41.80;21.77;;;;;;;;;;5093983;28;20301;-42
2022/12/14 03:26:45;;;;;;;39.03;20.35;;;;;;;;;;5093993;27;20039;-41
2022/12/14 03:29:15;;;;;;;41.92;22.60;;;;;;;;;;5092995;28;20044;-41
2022/12/14 03:31:49;;;;;;;46.60;22.77;;;;;;;;;;5094073;28;20039;-40
2022/12/14 03:34:17;;;;;;;46.53;23.27;;;;;;;;;;5094077;27;20044;-41
2022/12/14 03:36:46;;;;;;;42.25;21.73;;;;;;;;;;5094328;28;20081;-41
2022/12/14 03:39:16;;;;;;;44.42;21.73;;;;;;;;;;5095097;27;20055;-43
2022/12/14 03:41:55;;;;;;;45.80;22.67;;;;;;;;;;5094766;27;20067;-40
2022/12/14 03:44:40;;;;;;;42.85;21.33;;;;;;;;;;5095699;27;20048;-41
2022/12/14 03:47:12;;;;;;;39.47;20.38;;;;;;;;;;5094273;27;20052;-41
2022/12/14 03:49:41;;;;;;;39.67;21.02;;;;;;;;;;5094338;27;20052;-40
2022/12/14 03:52:16;;;;;;;47.05;22.88;;;;;;;;;;5093771;27;20051;-40
2022/12/14 03:55:07;;;;;;;41.00;21.35;;;;;;;;;;5094854;27;21113;-42
2022/12/14 03:57:48;;;;;;;39.08;20.40;;;;;;;;;;5095164;27;20461;-42
2022/12/14 04:00:18;;;;;;;41.30;21.92;;;;;;;;;;5093429;27;20527;-43
2022/12/14 04:02:48;;;;;;;42.83;22.90;;;;;;;;;;5093970;28;20537;-43
2022/12/14 04:05:17;;;;;;;43.70;23.83;;;;;;;;;;5092967;27;20960;-41
2022/12/14 04:07:49;;;;;;;40.90;22.10;;;;;;;;;;5093302;28;20783;-43
2022/12/14 04:19:00;;;;;;;46.38;22.20;;;;;;;;;;5093205;27;20052;-41
2022/12/14 04:21:32;;;;;;;42.83;23.15;;;;;;;;;;5092989;27;20118;-41
2022/12/14 04:26:50;;;;;;;45.42;21.92;;;;;;;;;;5092552;27;20623;-42
2022/12/14 04:32:09;;;;;;;43.05;22.80;;;;;;;;;;5092343;28;20047;-42
2022/12/14 04:34:36;;;;;;;42.65;22.48;;;;;;;;;;5093013;28;20047;-41
2022/12/14 04:37:05;;;;;;;43.20;23.42;;;;;;;;;;5090991;28;20083;-41
2022/12/14 04:39:31;;;;;;;43.28;23.08;;;;;;;;;;5092755;27;21186;-41
2022/12/14 04:41:59;;;;;;;44.00;21.92;;;;;;;;;;5092959;28;20051;-41
2022/12/14 04:44:32;;;;;;;46.25;22.88;;;;;;;;;;5092249;28;20534;-41
2022/12/14 04:46:58;;;;;;;;;;;;;;;;;;5093548;27;20605;-40
2022/12/14 04:49:41;;;;;;;41.72;21.55;;;;;;;;;;5092011;28;19923;-42
2022/12/14 04:52:25;;;;;;;44.22;22.58;;;;;;;;;;5092045;28;20032;-40
2022/12/14 04:54:51;;;;;;;38.22;20.90;;;;;;;;;;5091545;28;20045;-42
2022/12/14 04:57:22;;;;;;;43.05;21.83;;;;;;;;;;5092452;27;20499;-41
2022/12/14 04:59:49;;;;;;;45.77;22.90;;;;;;;;;;5094364;28;20648;-42
2022/12/14 05:02:37;;;;;;;40.92;21.23;;;;;;;;;;5093262;28;20286;-44
2022/12/14 05:05:12;;;;;;;41.90;22.10;;;;;;;;;;5095095;27;20396;-43
2022/12/14 05:07:46;;;;;;;42.20;21.40;;;;;;;;;;5094654;27;20039;-42
2022/12/14 05:10:19;;;;;;;42.75;21.27;;;;;;;;;;5093274;28;20471;-42
2022/12/14 05:12:54;;;;;;;38.80;21.38;;;;;;;;;;5094252;28;20043;-41
2022/12/14 05:15:22;;;;;;;40.60;20.83;;;;;;;;;;5092047;28;20506;-44
2022/12/14 05:17:49;;;;;;;44.67;22.40;;;;;;;;;;5094315;28;20624;-42
2022/12/14 05:20:17;;;;;;;40.22;20.73;;;;;;;;;;5092992;28;20991;-41
2022/12/14 05:22:43;;;;;;;38.42;20.15;;;;;;;;;;5095763;27;20071;-41
2022/12/14 05:25:09;;;;;;;37.33;19.42;;;;;;;;;;5100047;27;20434;-41
2022/12/14 05:27:35;;;;;;;44.42;21.10;;;;;;;;;;5096808;27;20104;-44
2022/12/14 05:30:01;;;;;;;39.80;21.40;;;;;;;;;;5097129;27;20055;-44
2022/12/14 05:32:28;;;;;;;43.05;22.33;;;;;;;;;;5095889;27;20279;-43
2022/12/14 05:34:54;;;;;;;38.83;20.83;;;;;;;;;;5097354;28;20275;-44
2022/12/14 05:37:20;;;;;;;38.95;20.65;;;;;;;;;;5096614;28;20035;-43
2022/12/14 05:39:46;;;;;;;38.63;20.08;;;;;;;;;;5095918;27;20723;-43
2022/12/14 05:42:12;;;;;;;36.67;20.00;;;;;;;;;;5096181;28;20074;-43
2022/12/14 05:44:38;;;;;;;38.80;19.98;;;;;;;;;;5096124;27;20424;-45
2022/12/14 05:47:05;;;;;;;37.97;20.05;;;;;;;;;;5096475;27;20056;-43
2022/12/14 05:49:31;;;;;;;37.75;19.10;;;;;;;;;;5096243;27;20046;-43
2022/12/14 05:51:57;;;;;;;46.42;21.95;;;;;;;;;;5095075;27;20035;-42
2022/12/14 05:54:23;;;;;;;39.88;20.90;;;;;;;;;;5095864;27;20042;-43
2022/12/14 05:56:49;;;;;;;38.65;19.58;;;;;;;;;;5095272;27;20690;-42
2022/12/14 05:59:16;;;;;;;38.45;19.27;;;;;;;;;;5094846;27;20040;-43
2022/12/14 06:01:42;;;;;;;33.90;19.08;;;;;;;;;;5095480;27;20516;-43
2022/12/14 06:04:10;;;;;;;41.78;20.17;;;;;;;;;;5095348;28;20500;-43
2022/12/14 06:06:36;;;;;;;36.13;19.75;;;;;;;;;;5096221;27;20043;-44
2022/12/14 06:09:05;;;;;;;39.20;20.42;;;;;;;;;;5094757;27;20074;-42
2022/12/14 06:11:31;;;;;;;40.60;21.27;;;;;;;;;;5094515;27;20125;-44
2022/12/14 06:13:57;;;;;;;39.25;20.83;;;;;;;;;;5095336;27;20927;-43
2022/12/14 06:16:24;;;;;;;40.03;19.95;;;;;;;;;;5096275;27;20114;-43
2022/12/14 06:18:54;;;;;;;38.83;20.55;;;;;;;;;;5094863;28;20442;-44
2022/12/14 06:21:22;;;;;;;41.63;22.17;;;;;;;;;;5094350;27;20038;-43
2022/12/14 06:23:48;;;;;;;41.78;22.27;;;;;;;;;;5095622;28;20078;-45
2022/12/14 06:26:15;;;;;;;39.28;20.42;;;;;;;;;;5097667;27;20108;-45
2022/12/14 06:28:41;;;;;;;41.30;20.15;;;;;;;;;;5096409;27;20506;-44
2022/12/14 06:31:14;;;;;;;44.78;21.92;;;;;;;;;;5096120;28;20047;-43
2022/12/14 06:33:40;;;;;;;42.33;21.45;;;;;;;;;;5096023;27;20035;-43
2022/12/14 06:36:06;;;;;;;36.90;20.50;;;;;;;;;;5096355;27;20031;-43
2022/12/14 06:38:34;;;;;;;43.58;21.25;;;;;;;;;;5093703;27;20127;-44
2022/12/14 06:41:00;;;;;;;36.10;20.20;;;;;;;;;;5096494;27;20040;-43
2022/12/14 06:43:26;;;;;;;36.47;19.55;;;;;;;;;;5097377;27;20051;-44
2022/12/14 06:45:53;;;;;;;44.55;20.25;;;;;;;;;;5095625;27;20404;-46
2022/12/14 06:48:19;;;;;;;35.78;20.02;;;;;;;;;;5095184;27;20043;-43
2022/12/14 06:50:45;;;;;;;46.65;25.40;;;;;;;;;;5095487;27;20051;-44
2022/12/14 06:53:12;;;;;;;41.45;21.38;;;;;;;;;;5094225;27;20095;-45
2022/12/14 06:55:38;;;;;;;46.13;22.75;;;;;;;;;;5093742;27;20046;-44
2022/12/14 06:58:05;;;;;;;43.17;20.65;;;;;;;;;;5094330;28;20089;-43
2022/12/14 07:00:31;;;;;;;45.70;25.23;;;;;;;;;;5094629;27;20047;-43
2022/12/14 07:02:57;;;;;;;47.75;22.90;;;;;;;;;;5093924;28;20353;-43
2022/12/14 07:05:24;;;;;;;45.10;20.88;;;;;;;;;;5093790;27;20038;-41
2022/12/14 07:07:50;;;;;;;38.35;21.48;;;;;;;;;;5093971;27;20047;-43
2022/12/14 07:10:16;;;;;;;41.60;21.67;;;;;;;;;;5095010;27;20036;-43
2022/12/14 07:12:42;;;;;;;39.60;20.73;;;;;;;;;;5094246;27;20675;-43
2022/12/14 07:15:09;;;;;;;44.42;21.85;;;;;;;;;;5093325;27;20150;-43
2022/12/14 07:17:36;;;;;;;43.75;21.55;;;;;;;;;;5093509;27;20047;-43
2022/12/14 07:20:03;;;;;;;38.83;19.92;;;;;;;;;;5093533;28;20042;-43
2022/12/14 07:22:29;;;;;;;40.05;19.25;;;;;;;;;;5093500;28;20047;-43
2022/12/14 07:24:55;;;;;;;39.60;19.77;;;;;;;;;;5093056;28;20445;-43
2022/12/14 07:27:22;;;;;;;40.33;20.77;;;;;;;;;;5092856;27;20087;-44
2022/12/14 07:29:49;;;;;;;37.25;19.23;;;;;;;;;;5093241;28;20040;-42
2022/12/14 07:32:15;;;;;;;41.80;20.52;;;;;;;;;;5093889;27;20039;-42
2022/12/14 07:34:41;;;;;;;35.22;19.50;;;;;;;;;;5094782;27;20522;-44
2022/12/14 07:37:07;;;;;;;42.15;20.52;;;;;;;;;;5093985;27;20044;-42
2022/12/14 07:39:33;;;;;;;38.47;19.75;;;;;;;;;;5095078;27;20032;-43
2022/12/14 07:41:59;;;;;;;31.75;18.58;;;;;;;;;;5094852;28;20776;-42
2022/12/14 07:44:25;;;;;;;35.28;18.92;;;;;;;;;;5094236;27;20082;-42
2022/12/14 07:46:52;;;;;;;34.63;18.83;;;;;;;;;;5093752;27;20039;-43
2022/12/14 07:49:18;;;;;;;34.80;19.73;;;;;;;;;;5094123;27;20050;-42
2022/12/14 07:51:45;;;;;;;41.20;21.05;;;;;;;;;;5094671;27;20446;-43
2022/12/14 07:54:11;;;;;;;41.42;20.38;;;;;;;;;;5095076;27;22101;-42
2022/12/14 07:56:39;;;;;;;39.38;19.58;;;;;;;;;;5095280;28;20466;-43
2022/12/14 07:59:07;;;;;;;37.78;20.02;;;;;;;;;;5093253;27;20933;-44
2022/12/14 08:01:34;;;;;;;40.08;19.65;;;;;;;;;;5094372;28;20046;-44
2022/12/14 08:04:03;;;;;;;38.65;19.20;;;;;;;;;;5094224;27;20067;-42
2022/12/14 08:06:30;;;;;;;35.55;19.08;;;;;;;;;;5094227;27;20055;-42
2022/12/14 08:08:56;;;;;;;36.33;19.38;;;;;;;;;;5095433;27;20442;-43
2022/12/14 08:11:23;;;;;;;35.90;19.65;;;;;;;;;;5095091;27;20118;-42
2022/12/14 08:13:56;;;;;;;37.58;19.67;;;;;;;;;;5095101;27;20504;-42
2022/12/14 08:16:22;;;;;;;34.15;19.17;;;;;;;;;;5094305;28;20165;-42
2022/12/14 08:18:49;;;;;;;36.95;19.77;;;;;;;;;;5094365;28;20475;-42
2022/12/14 08:21:19;;;;;;;36.30;18.55;;;;;;;;;;5094228;28;20040;-42
2022/12/14 08:23:46;;;;;;;33.15;18.75;;;;;;;;;;5093861;27;20045;-43
2022/12/14 08:26:12;;;;;;;40.25;19.08;;;;;;;;;;5094257;27;20039;-43
2022/12/14 08:28:38;;;;;;;39.33;20.75;;;;;;;;;;5093267;28;20572;-44
2022/12/14 08:31:05;;;;;;;41.95;20.58;;;;;;;;;;5095130;27;20040;-43
2022/12/14 08:33:32;;;;;;;42.33;20.80;;;;;;;;;;5092450;27;20090;-42
2022/12/14 08:36:04;;;;;;;35.67;19.42;;;;;;;;;;5093756;27;20077;-43
2022/12/14 08:38:30;;;;;;;42.77;21.90;;;;;;;;;;5092860;28;20036;-40
2022/12/14 08:41:00;;;;;;;37.90;20.10;;;;;;;;;;5093131;28;20040;-40
2022/12/14 08:43:26;;;;;;;40.92;20.55;;;;;;;;;;5093902;27;20050;-41
2022/12/14 08:45:54;;;;;;;40.13;21.70;;;;;;;;;;5092575;28;20531;-40
2022/12/14 08:48:20;;;;;;;42.00;20.23;;;;;;;;;;5092120;28;20039;-40
2022/12/14 08:50:47;;;;;;;40.35;20.02;;;;;;;;;;5091587;28;20036;-41
2022/12/14 08:53:13;;;;;;;41.42;21.23;;;;;;;;;;5091556;28;20519;-41
2022/12/14 08:55:39;;;;;;;42.78;23.83;;;;;;;;;;5092312;28;20442;-44
2022/12/14 08:58:05;;;;;;;40.33;21.30;;;;;;;;;;5090436;28;20039;-42
2022/12/14 09:00:31;;;;;;;45.45;24.80;;;;;;;;;;5092660;27;20108;-42
2022/12/14 09:02:57;;;;;;;44.65;24.10;;;;;;;;;;5092951;28;20583;-41
2022/12/14 09:05:24;;;;;;;45.03;24.40;;;;;;;;;;5091927;28;20071;-43
2022/12/14 09:07:50;;;;;;;41.80;23.40;;;;;;;;;;5093779;28;20130;-43
2022/12/14 09:10:16;;;;;;;45.88;25.70;;;;;;;;;;5092876;27;20035;-42
2022/12/14 09:12:42;;;;;;;43.30;24.75;;;;;;;;;;5093643;28;20043;-44
2022/12/14 09:15:12;;;;;;;42.65;23.90;;;;;;;;;;5092475;28;20453;-42
2022/12/14 09:17:38;;;;;;;43.45;23.35;;;;;;;;;;5092791;28;20046;-41
2022/12/14 09:20:04;;;;;;;41.40;23.20;;;;;;;;;;5091780;28;20407;-42
2022/12/14 09:22:31;;;;;;;41.50;22.55;;;;;;;;;;5092673;28;20616;-44
2022/12/14 09:24:57;;;;;;;38.72;23.48;;;;;;;;;;5091863;28;20672;-44
2022/12/14 09:27:23;;;;;;;38.42;21.17;;;;;;;;;;5093102;28;20036;-42
2022/12/14 09:29:49;;;;;;;37.20;21.05;;;;;;;;;;5094319;28;20047;-41
2022/12/14 09:32:16;;;;;;;45.72;23.05;;;;;;;;;;5093351;28;20131;-41
2022/12/14 09:34:42;;;;;;;40.00;21.88;;;;;;;;;;5093040;28;20077;-42
2022/12/14 09:37:08;;;;;;;37.13;22.23;;;;;;;;;;5093221;28;20404;-41
2022/12/14 09:39:36;;;;;;;36.60;22.35;;;;;;;;;;5093984;28;20355;-41
2022/12/14 09:42:08;;;;;;;36.72;21.63;;;;;;;;;;5093555;27;20089;-41
2022/12/14 09:44:40;;;;;;;38.88;22.42;;;;;;;;;;5093761;28;20052;-41
2022/12/14 09:47:20;;;;;;;38.00;21.63;;;;;;;;;;5093976;28;20058;-41
2022/12/14 09:50:09;;;;;;;37.92;20.92;;;;;;;;;;5092647;28;20055;-40
2022/12/14 09:52:45;;;;;;;39.80;21.88;;;;;;;;;;5092920;28;20035;-42
2022/12/14 09:55:17;;;;;;;35.90;21.75;;;;;;;;;;5092737;28;20065;-41
2022/12/14 09:57:44;;;;;;;38.03;22.83;;;;;;;;;;5092919;28;20035;-41
2022/12/14 10:00:18;;;;;;;35.78;21.48;;;;;;;;;;5092004;28;20047;-41
2022/12/14 10:02:47;;;;;;;36.85;22.05;;;;;;;;;;5091555;28;20092;-42
2022/12/14 10:05:13;;;;;;;40.15;22.85;;;;;;;;;;5092433;28;20043;-41
2022/12/14 10:07:42;;;;;;;37.10;21.33;;;;;;;;;;5092491;28;20199;-42
2022/12/14 10:10:17;;;;;;;41.72;23.10;;;;;;;;;;5094918;27;20053;-44
2022/12/14 10:12:56;;;;;;;36.42;21.60;;;;;;;;;;5095995;27;20216;-44
2022/12/14 10:15:31;;;;;;;37.22;22.52;;;;;;;;;;5096303;27;20044;-42
2022/12/14 10:18:00;;;;;;;37.65;21.85;;;;;;;;;;5096253;27;20138;-43
2022/12/14 10:20:38;;;;;;;30.95;19.42;;;;;;;;;;5095150;27;20123;-45
2022/12/14 10:23:04;;;;;;;32.13;19.75;;;;;;;;;;5095622;27;20039;-41
2022/12/14 10:25:32;;;;;;;33.33;18.52;;;;;;;;;;5095587;27;20036;-40
2022/12/14 10:28:00;;;;;;;33.67;19.00;;;;;;;;;;5095581;27;20088;-41
2022/12/14 10:30:27;;;;;;;33.28;19.63;;;;;;;;;;5094891;28;20054;-42
2022/12/14 10:32:55;;;;;;;34.88;20.15;;;;;;;;;;5094438;28;20404;-41
2022/12/14 10:35:38;;;;;;;36.30;20.23;;;;;;;;;;5094447;27;20112;-40
2022/12/14 10:38:04;;;;;;;;;;;;;;;;;;5095925;27;20524;-43
2022/12/14 10:40:31;;;;;;;35.33;17.75;;;;;;;;;;5096042;27;19924;-41
2022/12/14 10:43:16;;;;;;;28.77;17.77;;;;;;;;;;5094126;27;20055;-41
2022/12/14 10:45:49;;;;;;;30.08;17.27;;;;;;;;;;5094023;28;20050;-42
2022/12/14 10:48:30;;;;;;;31.92;18.80;;;;;;;;;;5094717;27;20063;-44
2022/12/14 10:51:25;;;;;;;32.80;18.30;;;;;;;;;;5095168;27;20031;-40
2022/12/14 10:53:58;;;;;;;35.30;19.10;;;;;;;;;;5081806;27;20098;-40
2022/12/14 10:56:31;;;;;;;34.45;18.08;;;;;;;;;;5095211;27;20049;-40
2022/12/14 10:59:28;;;;;;;36.17;19.20;;;;;;;;;;5095008;28;20095;-42
2022/12/14 11:01:54;;;;;;;36.13;18.70;;;;;;;;;;5095910;28;20659;-42
2022/12/14 11:04:28;;;;;;;33.90;17.63;;;;;;;;;;5093213;28;20078;-42
2022/12/14 11:06:55;;;;;;;34.38;19.50;;;;;;;;;;5096483;27;20074;-42
2022/12/14 11:09:22;;;;;;;30.73;17.52;;;;;;;;;;5095086;28;20036;-41
2022/12/14 11:11:48;;;;;;;31.70;18.42;;;;;;;;;;5094880;27;20043;-42
2022/12/14 11:14:24;;;;;;;33.33;18.73;;;;;;;;;;5097545;27;20089;-42
2022/12/14 11:16:50;;;;;;;31.50;18.00;;;;;;;;;;5095675;27;20583;-43
2022/12/14 11:19:17;;;;;;;32.45;17.73;;;;;;;;;;5096549;27;20038;-46
2022/12/14 11:21:44;;;;;;;29.90;17.40;;;;;;;;;;5093820;28;20608;-41
2022/12/14 11:24:21;;;;;;;31.58;18.05;;;;;;;;;;5094206;27;20608;-42
2022/12/14 11:26:47;;;;;;;32.67;18.25;;;;;;;;;;5095176;27;20078;-42
2022/12/14 11:29:22;;;;;;;32.65;17.95;;;;;;;;;;5094323;27;20039;-42
2022/12/14 11:31:51;;;;;;;31.83;16.38;;;;;;;;;;5092757;27;20138;-42
2022/12/14 11:34:27;;;;;;;27.50;16.65;;;;;;;;;;5092904;27;20051;-46
2022/12/14 11:36:53;;;;;;;27.17;15.48;;;;;;;;;;5092828;28;20040;-43
2022/12/14 11:39:21;;;;;;;29.02;16.27;;;;;;;;;;5093965;27;20106;-42
2022/12/14 11:41:48;;;;;;;31.20;16.55;;;;;;;;;;5094022;27;20542;-43
2022/12/14 11:44:14;;;;;;;29.17;16.25;;;;;;;;;;5093421;27;20114;-42
2022/12/14 11:46:42;;;;;;;28.48;16.05;;;;;;;;;;5093776;28;20512;-42
2022/12/14 11:49:26;;;;;;;26.52;16.02;;;;;;;;;;5093471;28;20123;-43
2022/12/14 11:51:55;;;;;;;30.05;16.73;;;;;;;;;;5092231;28;20522;-42
2022/12/14 11:54:21;;;;;;;28.20;16.05;;;;;;;;;;5092685;27;20172;-42
2022/12/14 11:56:51;;;;;;;28.42;15.57;;;;;;;;;;5092486;28;20043;-44
2022/12/14 11:59:18;;;;;;;30.48;16.35;;;;;;;;;;5093392;27;20628;-43
2022/12/14 12:01:44;;;;;;;29.10;16.65;;;;;;;;;;5093128;28;20095;-42
2022/12/14 12:04:15;;;;;;;27.67;16.13;;;;;;;;;;5092540;27;20131;-43
2022/12/14 12:06:41;;;;;;;24.35;13.77;;;;;;;;;;5092907;27;20036;-42
2022/12/14 12:09:29;;;;;;;22.65;12.50;;;;;;;;;;5093546;28;20035;-42
2022/12/14 12:11:55;;;;;;;26.58;14.30;;;;;;;;;;5092660;27;20120;-42
2022/12/14 12:14:38;;;;;;;22.85;13.30;;;;;;;;;;5092917;28;20194;-42
2022/12/14 12:17:16;;;;;;;23.83;13.00;;;;;;;;;;5093866;27;20039;-41
2022/12/14 12:19:43;;;;;;;22.38;12.93;;;;;;;;;;5093172;27;20040;-42
2022/12/14 12:22:11;;;;;;;26.35;14.02;;;;;;;;;;5094994;27;20047;-41
2022/12/14 12:25:00;;;;;;;25.27;14.52;;;;;;;;;;5094787;27;21093;-44
2022/12/14 12:27:26;;;;;;;25.42;13.68;;;;;;;;;;5093708;28;20104;-43
2022/12/14 12:29:55;;;;;;;27.48;15.38;;;;;;;;;;5092915;28;20536;-42
2022/12/14 12:32:33;;;;;;;27.42;15.50;;;;;;;;;;5093331;28;20044;-46
2022/12/14 12:35:14;;;;;;;22.80;13.98;;;;;;;;;;5093678;28;20347;-42
2022/12/14 12:37:41;;;;;;;26.75;14.82;;;;;;;;;;5093829;27;20770;-42
2022/12/14 12:40:20;;;;;;;29.13;15.55;;;;;;;;;;5093371;27;20429;-45
2022/12/14 12:42:56;;;;;;;68.95;23.10;;;;;;;;;;5093057;27;20089;-41
2022/12/14 12:45:22;;;;;;;40.50;20.27;;;;;;;;;;5094512;27;20078;-41
2022/12/14 12:48:11;;;;;;;37.85;17.90;;;;;;;;;;5092308;27;20301;-42
2022/12/14 12:50:41;;;;;;;30.45;16.25;;;;;;;;;;5091962;28;20039;-42
2022/12/14 12:53:12;;;;;;;40.75;19.27;;;;;;;;;;5092510;28;20035;-43
2022/12/14 12:55:41;;;;;;;46.15;18.98;;;;;;;;;;5091596;27;20178;-44
2022/12/14 12:58:18;;;;;;;25.55;13.93;;;;;;;;;;5092732;27;20085;-43
2022/12/14 13:00:47;;;;;;;37.50;15.35;;;;;;;;;;5092495;27;20044;-42
2022/12/14 13:03:24;;;;;;;29.45;15.05;;;;;;;;;;5091543;27;20082;-41
2022/12/14 13:05:51;;;;;;;29.58;13.50;;;;;;;;;;5092548;28;20044;-42
2022/12/14 13:08:22;;;;;;;23.63;11.98;;;;;;;;;;5092009;28;20035;-42
2022/12/14 13:10:49;;;;;;;22.60;12.73;;;;;;;;;;5092045;27;20048;-43
2022/12/14 13:13:18;;;;;;;22.55;12.35;;;;;;;;;;5091478;27;20096;-44
2022/12/14 13:15:47;;;;;;;21.42;11.65;;;;;;;;;;5092593;28;20040;-42
2022/12/14 13:18:39;;;;;;;20.75;11.40;;;;;;;;;;5092648;28;20623;-42
2022/12/14 13:21:14;;;;;;;18.90;10.63;;;;;;;;;;5091265;28;20749;-43
2022/12/14 13:23:40;;;;;;;24.67;10.68;;;;;;;;;;5091735;28;20044;-42
2022/12/14 13:26:12;;;;;;;20.13;10.65;;;;;;;;;;5090207;28;20473;-42
2022/12/14 13:28:38;;;;;;;;;;;;;;;;;;5093495;28;20040;-43
2022/12/14 13:31:23;;;;;;;16.88;9.32;;;;;;;;;;5092834;28;19935;-42
2022/12/14 13:33:52;;;;;;;22.17;10.73;;;;;;;;;;5094061;28;20039;-42
2022/12/14 13:36:24;;;;;;;20.45;10.30;;;;;;;;;;5093130;28;20404;-44
2022/12/14 13:39:03;;;;;;;20.52;10.57;;;;;;;;;;5093753;28;20041;-42
2022/12/14 13:41:52;;;;;;;45.15;15.57;;;;;;;;;;5092474;28;20035;-46
2022/12/14 13:44:21;;;;;;;25.25;11.90;;;;;;;;;;5089721;27;20083;-43
2022/12/14 13:46:59;;;;;;;26.73;11.63;;;;;;;;;;5097600;27;20062;-42
2022/12/14 13:49:25;;;;;;;16.40;9.68;;;;;;;;;;5097455;27;20043;-42
2022/12/14 13:51:51;;;;;;;19.27;10.45;;;;;;;;;;5096361;27;20294;-43
2022/12/14 13:54:28;;;;;;;18.00;9.40;;;;;;;;;;5097534;28;20035;-43
2022/12/14 13:57:20;;;;;;;18.25;10.00;;;;;;;;;;5095987;28;20032;-44
2022/12/14 13:59:51;;;;;;;19.27;10.32;;;;;;;;;;5096312;27;20065;-41
2022/12/14 14:02:40;;;;;;;19.67;9.80;;;;;;;;;;5096477;27;20082;-42
2022/12/14 14:05:19;;;;;;;16.80;9.35;;;;;;;;;;5085575;27;20046;-43
2022/12/14 14:07:51;;;;;;;17.67;10.32;;;;;;;;;;5094879;28;20100;-44
2022/12/14 14:10:46;;;;;;;18.45;10.25;;;;;;;;;;5095722;27;20043;-44
2022/12/14 14:13:27;;;;;;;21.35;10.75;;;;;;;;;;5082402;27;20600;-43
2022/12/14 14:15:54;;;;;;;15.45;9.88;;;;;;;;;;5095397;27;20042;-43
2022/12/14 14:18:23;;;;;;;18.60;9.88;;;;;;;;;;5095185;27;20436;-43
2022/12/14 14:21:07;;;;;;;20.77;11.18;;;;;;;;;;5094798;27;20039;-42
2022/12/14 14:23:34;;;;;;;19.10;10.07;;;;;;;;;;5095817;27;20409;-43
2022/12/14 14:26:18;;;;;;;16.45;9.88;;;;;;;;;;5094731;27;20047;-43
2022/12/14 14:28:44;;;;;;;22.58;10.48;;;;;;;;;;5094486;27;20071;-42
2022/12/14 14:31:11;;;;;;;17.05;10.20;;;;;;;;;;5093521;27;20100;-42
2022/12/14 14:33:42;;;;;;;19.25;11.18;;;;;;;;;;5095352;27;20039;-42
2022/12/14 14:36:21;;;;;;;19.02;10.68;;;;;;;;;;5095087;28;20391;-42
2022/12/14 14:38:47;;;;;;;18.85;10.60;;;;;;;;;;5093900;27;20055;-41
2022/12/14 14:41:20;;;;;;;17.45;10.77;;;;;;;;;;5096319;27;20044;-41
2022/12/14 14:43:46;;;;;;;;;;;;;;;;;;5095347;27;20048;-41
2022/12/14 14:46:12;;;;;;;44.67;17.73;;;;;;;;;;5095468;27;19924;-41
2022/12/14 14:48:44;;;;;;;128.35;43.72;;;;;;;;;;5094677;27;20047;-43